createdAt,value
2023-04-14T00:01:47.632Z,47.61
2023-04-14T00:06:47.644Z,47.28
2023-04-14T00:16:47.645Z,46.88
2023-04-14T00:21:47.645Z,46.76
2023-04-14T00:26:47.636Z,46.78
2023-04-14T00:31:47.646Z,46.91
2023-04-14T00:36:47.637Z,47.18
2023-04-14T00:41:47.649Z,47.32
2023-04-14T00:46:47.649Z,47.21
2023-04-14T00:51:47.650Z,47.17
2023-04-14T00:56:47.650Z,46.93
2023-04-14T01:01:47.641Z,46.72
2023-04-14T01:06:47.653Z,46.7
2023-04-14T01:11:47.642Z,46.93
2023-04-14T01:16:47.654Z,46.88
2023-04-14T01:21:47.654Z,46.79
2023-04-14T01:26:47.643Z,46.74
2023-04-14T01:31:47.655Z,46.5
2023-04-14T01:36:47.646Z,46.29
2023-04-14T01:41:47.658Z,45.96
2023-04-14T01:46:47.657Z,45.9
2023-04-14T01:51:47.659Z,45.77
2023-04-14T01:56:47.659Z,45.94
2023-04-14T02:01:47.650Z,45.94
2023-04-14T02:06:47.660Z,45.96
2023-04-14T02:11:47.651Z,46.21
2023-04-14T02:16:47.710Z,46.1
2023-04-14T02:21:47.663Z,45.91
2023-04-14T02:26:47.664Z,46.33
2023-04-14T02:31:47.664Z,46.3
2023-04-14T02:36:47.655Z,46.05
2023-04-14T02:41:47.667Z,46.02
2023-04-14T02:46:47.656Z,45.72
2023-04-14T02:51:47.668Z,45.83
2023-04-14T02:56:47.668Z,45.56
2023-04-14T03:01:47.659Z,45.76
2023-04-14T03:06:47.669Z,45.86
2023-04-14T03:11:47.660Z,45.87
2023-04-14T03:16:47.672Z,45.67
2023-04-14T03:21:47.672Z,45.92
2023-04-14T03:26:47.674Z,46.13
2023-04-14T03:31:47.673Z,46.1
2023-04-14T03:36:47.664Z,46.23
2023-04-14T03:41:47.676Z,46.22
2023-04-14T03:51:47.677Z,45.93
2023-04-14T03:56:47.677Z,45.73
2023-04-14T04:01:47.668Z,45.66
2023-04-14T04:06:47.679Z,45.79
2023-04-14T04:11:47.670Z,45.61
2023-04-14T04:16:47.681Z,45.39
2023-04-14T04:21:47.681Z,45.53
2023-04-14T04:26:47.683Z,45.61
2023-04-14T04:31:47.685Z,45.7
2023-04-14T04:36:47.673Z,45.63
2023-04-14T04:41:47.684Z,45.73
2023-04-14T04:46:47.675Z,45.83
2023-04-14T04:51:47.687Z,45.9
2023-04-14T04:56:47.687Z,45.93
2023-04-14T05:01:47.676Z,46.13
2023-04-14T05:06:47.690Z,45.79
2023-04-14T05:11:47.679Z,45.29
2023-04-14T05:21:47.681Z,45.14
2023-04-14T05:26:47.692Z,45.36
2023-04-14T05:31:47.692Z,44.86
2023-04-14T05:36:48.685Z,44.79
2023-04-14T05:41:47.694Z,44.8
2023-04-14T05:46:47.685Z,45.31
2023-04-14T05:51:47.696Z,45.6
2023-04-14T05:56:47.696Z,44.77
2023-04-14T06:01:47.698Z,44.39
2023-04-14T06:06:47.700Z,44.08
2023-04-14T06:11:47.689Z,43.89
2023-04-14T06:16:47.701Z,43.99
2023-04-14T06:21:47.691Z,44.32
2023-04-14T06:26:47.703Z,44.76
2023-04-14T06:31:47.703Z,44.19
2023-04-14T06:36:54.659Z,43.79
2023-04-14T06:41:47.704Z,44.14
2023-04-14T06:46:47.695Z,44.58
2023-04-14T06:51:47.707Z,44.84
2023-04-14T06:56:47.708Z,44.75
2023-04-14T07:01:47.709Z,44.45
2023-04-14T07:06:47.711Z,43.77
2023-04-14T07:11:47.700Z,43.48
2023-04-14T07:16:47.711Z,43.31
2023-04-14T07:21:47.702Z,44.12
2023-04-14T07:26:47.738Z,44.4
2023-04-14T07:31:47.715Z,44.42
2023-04-14T07:37:00.665Z,44.75
2023-04-14T07:41:47.719Z,44.78
2023-04-14T07:46:47.708Z,44.32
2023-04-14T07:51:47.719Z,43.81
2023-04-14T07:56:47.710Z,41.44
2023-04-14T08:01:47.722Z,35.33
2023-04-14T08:06:47.723Z,31.48
2023-04-14T08:11:47.714Z,30.05
2023-04-14T08:16:47.726Z,31.36
2023-04-14T08:21:47.718Z,34.68
2023-04-14T08:26:47.729Z,34.92
2023-04-14T08:31:47.731Z,39.68
2023-04-14T08:37:06.687Z,43.28
2023-04-14T08:41:47.736Z,43.39
2023-04-14T08:46:47.726Z,41.62
2023-04-14T08:51:47.737Z,41.6
2023-04-14T08:56:47.729Z,35.13
2023-04-14T09:01:47.741Z,35.43
2023-04-14T09:06:47.743Z,30.51
2023-04-14T09:11:47.735Z,28.67
2023-04-14T09:16:47.749Z,32.28
2023-04-14T09:21:47.739Z,36.77
2023-04-14T09:26:47.751Z,40.9
2023-04-14T09:31:47.754Z,37.77
2023-04-14T09:37:12.674Z,36.61
2023-04-14T09:41:47.759Z,39.79
2023-04-14T09:46:47.749Z,42.41
2023-04-14T09:51:47.761Z,40.81
2023-04-14T09:56:47.753Z,40.25
2023-04-14T10:01:47.765Z,42.92
2023-04-14T10:06:47.767Z,36.94
2023-04-14T10:11:47.759Z,39.95
2023-04-14T10:16:47.773Z,42.58
2023-04-14T10:21:47.763Z,35.01
2023-04-14T10:26:47.776Z,36.12
2023-04-14T10:31:47.778Z,42.59
2023-04-14T10:37:02.196Z,46.76
2023-04-14T10:41:47.784Z,47.94
2023-04-14T10:47:02.202Z,48.78
2023-04-14T10:51:47.785Z,48.67
2023-04-14T10:57:04.255Z,48.13
2023-04-14T11:01:47.788Z,47.41
2023-04-14T11:06:47.790Z,45.4
2023-04-14T11:11:47.782Z,44.31
2023-04-14T11:16:47.796Z,38.48
2023-04-14T11:21:47.786Z,34.27
2023-04-14T11:26:47.798Z,30.88
2023-04-14T11:31:47.800Z,36.32
2023-04-14T11:36:47.803Z,42.34
2023-04-14T11:41:47.807Z,46.01
2023-04-14T11:46:47.797Z,47.2
2023-04-14T11:51:47.852Z,47.37
2023-04-14T11:56:47.800Z,47.85
2023-04-14T12:01:47.812Z,47.3
2023-04-14T12:06:47.814Z,46.93
2023-04-14T12:16:47.819Z,45.9
2023-04-14T12:21:47.809Z,43.78
2023-04-14T12:26:47.821Z,42.95
2023-04-14T12:32:04.300Z,38.51
2023-04-14T12:37:04.302Z,37.17
2023-04-14T12:42:04.306Z,32.92
2023-04-14T12:47:04.298Z,34.19
2023-04-14T12:52:04.309Z,34.43
2023-04-14T12:56:47.834Z,35.93
2023-04-14T13:06:47.841Z,46.94
2023-04-14T13:11:47.830Z,48.81
2023-04-14T13:16:47.842Z,51.18
2023-04-14T13:22:04.312Z,51.82
2023-04-14T13:27:04.324Z,52.21
2023-04-14T13:32:04.326Z,52.84
2023-04-14T13:37:04.317Z,53.32
2023-04-14T13:42:04.327Z,52.67
2023-04-14T13:47:04.330Z,52.77
2023-04-14T13:51:47.843Z,51.34
2023-04-14T13:56:47.856Z,49.65
2023-04-14T14:01:47.846Z,48.33
2023-04-14T14:06:47.857Z,46.49
2023-04-14T14:11:47.859Z,44.45
2023-04-14T14:16:47.860Z,44.1
2023-04-14T14:21:47.864Z,43.41
2023-04-14T14:26:47.854Z,36.42
2023-04-14T14:36:47.858Z,31.81
2023-04-14T14:41:47.870Z,33.38
2023-04-14T14:46:47.873Z,37.33
2023-04-14T14:51:47.917Z,39.95
2023-04-14T15:01:47.869Z,42.33
2023-04-14T15:06:47.881Z,43.23
2023-04-14T15:17:04.362Z,43.94
2023-04-14T15:22:04.388Z,46.74
2023-04-14T15:27:04.357Z,48.05
2023-04-14T15:32:04.368Z,48.82
2023-04-14T15:37:04.370Z,48.79
2023-04-14T15:42:04.372Z,49.1
2023-04-14T15:47:04.374Z,49.85
2023-04-14T15:51:47.887Z,49.35
2023-04-14T15:56:47.899Z,49.37
2023-04-14T16:01:47.890Z,48.87
2023-04-14T16:06:47.902Z,48.83
2023-04-14T16:11:47.904Z,48.65
2023-04-14T16:16:47.895Z,48.11
2023-04-14T16:21:47.909Z,47.36
2023-04-14T16:26:47.898Z,47.24
2023-04-14T16:31:47.910Z,47.71
2023-04-14T16:36:47.911Z,47.29
2023-04-14T16:41:47.913Z,47.39
2023-04-14T16:46:47.915Z,47.26
2023-04-14T16:51:47.906Z,47.55
2023-04-14T16:56:47.917Z,47.83
2023-04-14T17:01:47.909Z,47.36
2023-04-14T17:06:47.921Z,47.41
2023-04-14T17:11:47.922Z,47.67
2023-04-14T17:16:47.914Z,47.66
2023-04-14T17:21:47.927Z,47.8
2023-04-14T17:26:47.917Z,47.83
2023-04-14T17:31:47.928Z,47.9
2023-04-14T17:36:47.929Z,48.33
2023-04-14T17:41:47.931Z,48.6
2023-04-14T17:46:47.934Z,48.64
2023-04-14T17:51:47.924Z,48.49
2023-04-14T17:56:47.985Z,48.87
2023-04-14T18:01:47.926Z,49.37
2023-04-14T18:06:47.980Z,49.87
2023-04-14T18:11:47.939Z,50.04
2023-04-14T18:16:47.930Z,50.08
2023-04-14T18:21:47.943Z,49.83
2023-04-14T18:26:47.933Z,49.31
2023-04-14T18:31:47.944Z,48.67
2023-04-14T18:36:47.935Z,48.11
2023-04-14T18:41:47.947Z,47.71
2023-04-14T18:46:47.948Z,47.5
2023-04-14T18:51:47.939Z,47.4
2023-04-14T18:56:47.952Z,47.17
2023-04-14T19:01:47.942Z,47.19
2023-04-14T19:06:47.953Z,47.06
2023-04-14T19:11:47.955Z,47.35
2023-04-14T19:16:47.955Z,47.21
2023-04-14T19:21:47.959Z,46.97
2023-04-14T19:26:47.948Z,47.13
2023-04-14T19:31:47.959Z,47.23
2023-04-14T19:36:47.950Z,47.42
2023-04-14T19:41:47.963Z,47.57
2023-04-14T19:46:47.963Z,47.72
2023-04-14T19:51:47.954Z,47.62
2023-04-14T19:56:47.967Z,47.45
2023-04-14T20:01:47.956Z,47.73
2023-04-14T20:06:47.969Z,48.06
2023-04-14T20:11:47.969Z,48.46
2023-04-14T20:16:47.970Z,48.5
2023-04-14T20:21:47.971Z,48.58
2023-04-14T20:26:47.962Z,48.75
2023-04-14T20:31:47.973Z,48.95
2023-04-14T20:36:47.964Z,48.65
2023-04-14T20:41:47.975Z,48.31
2023-04-14T20:46:47.976Z,48.79
2023-04-14T20:51:47.967Z,49.07
2023-04-14T20:56:47.980Z,48.94
2023-04-14T21:01:47.969Z,48.85
2023-04-14T21:12:04.449Z,48.88
2023-04-14T21:17:04.461Z,48.7
2023-04-14T21:22:04.462Z,49.35
2023-04-14T21:27:04.452Z,49.04
2023-04-14T21:32:22.989Z,48.76
2023-04-14T21:37:04.463Z,48.74
2023-04-14T21:42:04.453Z,49.03
2023-04-14T21:46:47.990Z,48.95
2023-04-14T21:52:04.456Z,48.85
2023-04-14T21:56:47.991Z,48.87
2023-04-14T22:01:47.991Z,48.56
2023-04-14T22:06:47.992Z,48.16
2023-04-14T22:11:47.993Z,48.12
2023-04-14T22:16:47.983Z,47.8
2023-04-14T22:21:47.994Z,48.08
2023-04-14T22:26:47.985Z,48.25
2023-04-14T22:31:47.997Z,48.22
2023-04-14T22:36:47.996Z,47.93
2023-04-14T22:41:47.986Z,47.91
2023-04-14T22:46:48.000Z,47.97
2023-04-14T22:51:47.999Z,47.69
2023-04-14T22:56:48.001Z,47.52
2023-04-14T23:01:47.991Z,46.94
2023-04-14T23:06:48.002Z,46.96
2023-04-14T23:11:48.002Z,47.03
2023-04-14T23:16:47.993Z,46.85
2023-04-14T23:21:48.004Z,47
2023-04-14T23:26:47.995Z,46.83
2023-04-14T23:31:48.071Z,46.64
2023-04-14T23:36:48.006Z,46.58
2023-04-14T23:41:48.048Z,46.77
2023-04-14T23:46:48.010Z,46.81
2023-04-14T23:51:47.999Z,46.86
2023-04-14T23:56:48.011Z,46.81
